createdAt,value
2023-01-20T00:00:02.095Z,992.63
2023-01-20T00:01:04.739Z,992.61
2023-01-20T00:02:07.424Z,992.62
2023-01-20T00:03:10.131Z,992.65
2023-01-20T00:04:12.804Z,992.69
2023-01-20T00:05:16.416Z,992.66
2023-01-20T00:06:18.971Z,992.65
2023-01-20T00:07:21.876Z,992.69
2023-01-20T00:08:24.548Z,992.72
2023-01-20T00:09:27.235Z,992.69
2023-01-20T00:10:29.919Z,992.68
2023-01-20T00:11:32.558Z,992.76
2023-01-20T00:12:35.184Z,992.77
2023-01-20T00:13:37.901Z,992.83
2023-01-20T00:14:40.576Z,992.81
2023-01-20T00:15:43.284Z,992.81
2023-01-20T00:16:46.510Z,992.85
2023-01-20T00:17:49.044Z,992.85
2023-01-20T00:18:51.918Z,992.86
2023-01-20T00:19:54.556Z,992.85
2023-01-20T00:20:57.218Z,992.79
2023-01-20T00:21:59.858Z,992.83
2023-01-20T00:23:02.495Z,992.78
2023-01-20T00:24:08.608Z,992.84
2023-01-20T00:25:11.332Z,992.83
2023-01-20T00:26:13.957Z,992.83
2023-01-20T00:27:19.655Z,992.84
2023-01-20T00:28:22.742Z,992.84
2023-01-20T00:29:25.494Z,992.87
2023-01-20T00:30:28.402Z,992.87
2023-01-20T00:31:31.465Z,992.94
2023-01-20T00:32:34.114Z,993
2023-01-20T00:33:36.754Z,993.01
2023-01-20T00:34:39.374Z,993.01
2023-01-20T00:35:42.022Z,993.02
2023-01-20T00:36:44.717Z,992.99
2023-01-20T00:37:47.406Z,993.01
2023-01-20T00:38:50.006Z,992.99
2023-01-20T00:39:52.656Z,992.99
2023-01-20T00:40:55.321Z,993.01
2023-01-20T00:41:57.979Z,993.02
2023-01-20T00:43:00.696Z,993.07
2023-01-20T00:44:03.395Z,993
2023-01-20T00:45:06.096Z,993.01
2023-01-20T00:46:09.290Z,993.01
2023-01-20T00:47:11.879Z,993.11
2023-01-20T00:48:14.675Z,993.13
2023-01-20T00:49:18.362Z,993.14
2023-01-20T00:50:21.034Z,993.12
2023-01-20T00:51:23.630Z,993.13
2023-01-20T00:52:26.343Z,993.16
2023-01-20T00:53:29.032Z,993.16
2023-01-20T00:54:31.663Z,993.16
2023-01-20T00:55:34.285Z,993.19
2023-01-20T00:56:36.894Z,993.11
2023-01-20T00:57:39.563Z,993.12
2023-01-20T00:58:42.246Z,993.1
2023-01-20T00:59:45.026Z,993.18
2023-01-20T01:00:47.958Z,993.18
2023-01-20T01:01:51.115Z,993.12
2023-01-20T01:02:55.406Z,993.21
2023-01-20T01:03:57.889Z,993.19
2023-01-20T01:05:00.480Z,993.15
2023-01-20T01:06:03.491Z,993.21
2023-01-20T01:07:06.023Z,993.22
2023-01-20T01:08:08.682Z,993.29
2023-01-20T01:09:11.307Z,993.29
2023-01-20T01:10:14.614Z,993.31
2023-01-20T01:11:17.292Z,993.27
2023-01-20T01:12:19.917Z,993.32
2023-01-20T01:13:22.524Z,993.29
2023-01-20T01:14:25.180Z,993.36
2023-01-20T01:15:27.783Z,993.3
2023-01-20T01:16:30.657Z,993.29
2023-01-20T01:17:33.348Z,993.3
2023-01-20T01:18:36.012Z,993.37
2023-01-20T01:19:38.733Z,993.37
2023-01-20T01:20:41.214Z,993.34
2023-01-20T01:21:44.069Z,993.33
2023-01-20T01:22:46.678Z,993.37
2023-01-20T01:23:49.325Z,993.34
2023-01-20T01:24:51.987Z,993.41
2023-01-20T01:25:54.586Z,993.41
2023-01-20T01:26:57.194Z,993.51
2023-01-20T01:28:00.019Z,993.5
2023-01-20T01:29:02.662Z,993.5
2023-01-20T01:30:05.539Z,993.53
2023-01-20T01:31:08.471Z,993.53
2023-01-20T01:32:11.180Z,993.62
2023-01-20T01:33:14.009Z,993.59
2023-01-20T01:34:16.854Z,993.62
2023-01-20T01:35:19.723Z,993.67
2023-01-20T01:36:22.409Z,993.7
2023-01-20T01:37:25.308Z,993.7
2023-01-20T01:38:27.940Z,993.72
2023-01-20T01:39:30.597Z,993.78
2023-01-20T01:40:33.271Z,993.72
2023-01-20T01:41:35.964Z,993.77
2023-01-20T01:42:38.628Z,993.78
2023-01-20T01:43:41.405Z,993.78
2023-01-20T01:44:44.117Z,993.77
2023-01-20T01:45:46.980Z,993.77
2023-01-20T01:46:49.873Z,993.82
2023-01-20T01:47:52.576Z,993.79
2023-01-20T01:48:56.528Z,993.73
2023-01-20T01:49:59.320Z,993.72
2023-01-20T01:51:01.981Z,993.75
2023-01-20T01:52:04.624Z,993.73
2023-01-20T01:53:07.297Z,993.81
2023-01-20T01:54:09.949Z,993.76
2023-01-20T01:55:13.918Z,993.8
2023-01-20T01:56:16.673Z,993.76
2023-01-20T01:57:19.305Z,993.77
2023-01-20T01:58:22.546Z,993.78
2023-01-20T01:59:25.217Z,993.84
2023-01-20T02:00:27.870Z,993.83
2023-01-20T02:01:30.737Z,993.8
2023-01-20T02:02:33.621Z,993.83
2023-01-20T02:03:38.148Z,993.82
2023-01-20T02:04:40.893Z,993.82
2023-01-20T02:05:43.509Z,993.84
2023-01-20T02:06:46.188Z,993.8
2023-01-20T02:08:03.853Z,993.78
2023-01-20T02:09:05.980Z,993.78
2023-01-20T02:10:08.837Z,993.82
2023-01-20T02:11:11.475Z,993.79
2023-01-20T02:12:14.399Z,993.8
2023-01-20T02:13:17.019Z,993.85
2023-01-20T02:14:19.688Z,993.82
2023-01-20T02:15:22.307Z,993.85
2023-01-20T02:16:25.416Z,993.87
2023-01-20T02:17:28.830Z,993.8
2023-01-20T02:18:31.475Z,993.88
2023-01-20T02:19:34.194Z,993.88
2023-01-20T02:20:46.905Z,993.9
2023-01-20T02:21:49.057Z,993.92
2023-01-20T02:22:51.632Z,993.97
2023-01-20T02:23:54.253Z,993.96
2023-01-20T02:24:56.932Z,993.97
2023-01-20T02:25:59.597Z,993.98
2023-01-20T02:27:02.401Z,994.01
2023-01-20T02:28:05.063Z,993.97
2023-01-20T02:29:07.789Z,993.98
2023-01-20T02:30:10.506Z,993.97
2023-01-20T02:31:13.546Z,994.02
2023-01-20T02:32:16.216Z,994
2023-01-20T02:33:18.820Z,993.99
2023-01-20T02:34:21.415Z,994.04
2023-01-20T02:35:24.090Z,994.08
2023-01-20T02:36:29.645Z,994
2023-01-20T02:37:32.882Z,994.09
2023-01-20T02:38:35.485Z,994.09
2023-01-20T02:39:38.086Z,993.99
2023-01-20T02:40:40.772Z,994.07
2023-01-20T02:41:43.354Z,994.09
2023-01-20T02:42:45.964Z,994.07
2023-01-20T02:43:48.665Z,993.99
2023-01-20T02:44:51.384Z,994.01
2023-01-20T02:45:54.260Z,994.05
2023-01-20T02:46:56.952Z,994.02
2023-01-20T02:47:59.602Z,994.07
2023-01-20T02:49:03.440Z,994.08
2023-01-20T02:50:06.019Z,994.08
2023-01-20T02:51:09.419Z,994.11
2023-01-20T02:52:12.269Z,994.11
2023-01-20T02:53:14.842Z,994.15
2023-01-20T02:54:17.516Z,994.16
2023-01-20T02:55:20.792Z,994.13
2023-01-20T02:56:23.445Z,994.1
2023-01-20T02:57:26.690Z,994.18
2023-01-20T02:58:29.325Z,994.13
2023-01-20T02:59:31.979Z,994.15
2023-01-20T03:00:34.939Z,994.17
2023-01-20T03:01:37.931Z,994.16
2023-01-20T03:02:40.574Z,994.18
2023-01-20T03:03:43.481Z,994.25
2023-01-20T03:04:46.121Z,994.23
2023-01-20T03:05:49.274Z,994.3
2023-01-20T03:06:51.919Z,994.3
2023-01-20T03:07:54.613Z,994.27
2023-01-20T03:08:57.232Z,994.26
2023-01-20T03:09:59.896Z,994.27
2023-01-20T03:11:02.468Z,994.31
2023-01-20T03:12:05.098Z,994.28
2023-01-20T03:13:07.754Z,994.27
2023-01-20T03:14:10.411Z,994.29
2023-01-20T03:15:14.476Z,994.34
2023-01-20T03:16:17.168Z,994.3
2023-01-20T03:17:19.827Z,994.33
2023-01-20T03:18:22.423Z,994.36
2023-01-20T03:19:25.066Z,994.39
2023-01-20T03:20:27.807Z,994.4
2023-01-20T03:21:30.452Z,994.43
2023-01-20T03:22:33.459Z,994.46
2023-01-20T03:23:36.127Z,994.52
2023-01-20T03:24:38.791Z,994.48
2023-01-20T03:25:41.470Z,994.46
2023-01-20T03:26:51.596Z,994.48
2023-01-20T03:27:53.908Z,994.49
2023-01-20T03:28:56.503Z,994.48
2023-01-20T03:30:09.162Z,994.5
2023-01-20T03:31:11.957Z,994.53
2023-01-20T03:32:14.525Z,994.52
2023-01-20T03:33:17.153Z,994.53
2023-01-20T03:34:19.861Z,994.56
2023-01-20T03:35:22.520Z,994.57
2023-01-20T03:36:25.215Z,994.63
2023-01-20T03:37:27.772Z,994.65
2023-01-20T03:38:30.547Z,994.68
2023-01-20T03:39:33.319Z,994.57
2023-01-20T03:40:36.542Z,994.55
2023-01-20T03:41:39.139Z,994.62
2023-01-20T03:42:41.808Z,994.63
2023-01-20T03:43:44.436Z,994.59
2023-01-20T03:44:47.089Z,994.65
2023-01-20T03:45:49.903Z,994.62
2023-01-20T03:46:52.530Z,994.65
2023-01-20T03:47:55.204Z,994.66
2023-01-20T03:48:57.832Z,994.64
2023-01-20T03:50:01.298Z,994.68
2023-01-20T03:51:03.874Z,994.69
2023-01-20T03:52:06.532Z,994.76
2023-01-20T03:53:09.167Z,994.73
2023-01-20T03:54:11.839Z,994.73
2023-01-20T03:55:15.838Z,994.73
2023-01-20T03:56:18.513Z,994.77
2023-01-20T03:57:21.162Z,994.73
2023-01-20T03:58:23.830Z,994.74
2023-01-20T03:59:26.472Z,994.8
2023-01-20T04:00:30.391Z,994.74
2023-01-20T04:01:34.626Z,994.81
2023-01-20T04:02:37.255Z,994.75
2023-01-20T04:03:40.106Z,994.88
2023-01-20T04:04:42.772Z,994.85
2023-01-20T04:05:45.399Z,994.88
2023-01-20T04:06:48.024Z,994.87
2023-01-20T04:07:50.820Z,994.89
2023-01-20T04:08:57.402Z,994.89
2023-01-20T04:09:59.811Z,994.89
2023-01-20T04:11:02.488Z,994.89
2023-01-20T04:12:05.150Z,994.89
2023-01-20T04:13:07.827Z,994.9
2023-01-20T04:14:10.474Z,994.92
2023-01-20T04:15:14.646Z,994.89
2023-01-20T04:16:17.327Z,994.89
2023-01-20T04:17:19.999Z,994.95
2023-01-20T04:18:22.716Z,994.98
2023-01-20T04:19:25.362Z,995.02
2023-01-20T04:20:28.027Z,994.99
2023-01-20T04:21:30.685Z,995.05
2023-01-20T04:22:33.323Z,995.07
2023-01-20T04:23:36.015Z,995.1
2023-01-20T04:24:38.630Z,995.09
2023-01-20T04:25:41.428Z,995.1
2023-01-20T04:26:44.081Z,995.15
2023-01-20T04:27:46.903Z,995.15
2023-01-20T04:28:49.796Z,995.18
2023-01-20T04:29:52.450Z,995.21
2023-01-20T04:30:55.818Z,995.17
2023-01-20T04:31:58.569Z,995.22
2023-01-20T04:33:01.242Z,995.25
2023-01-20T04:34:03.899Z,995.24
2023-01-20T04:35:06.819Z,995.28
2023-01-20T04:36:09.464Z,995.23
2023-01-20T04:37:12.131Z,995.33
2023-01-20T04:38:14.720Z,995.29
2023-01-20T04:39:17.354Z,995.33
2023-01-20T04:40:19.958Z,995.39
2023-01-20T04:41:22.605Z,995.39
2023-01-20T04:42:25.259Z,995.36
2023-01-20T04:43:28.486Z,995.41
2023-01-20T04:44:31.156Z,995.42
2023-01-20T04:45:34.054Z,995.34
2023-01-20T04:46:37.741Z,995.36
2023-01-20T04:47:40.281Z,995.36
2023-01-20T04:48:42.978Z,995.3
2023-01-20T04:49:45.705Z,995.37
2023-01-20T04:50:48.385Z,995.38
2023-01-20T04:51:51.016Z,995.41
2023-01-20T04:52:53.658Z,995.39
2023-01-20T04:53:56.516Z,995.38
2023-01-20T04:54:59.197Z,995.43
2023-01-20T04:56:01.907Z,995.45
2023-01-20T04:57:04.577Z,995.42
2023-01-20T04:58:07.275Z,995.42
2023-01-20T04:59:10.160Z,995.42
2023-01-20T05:00:12.803Z,995.44
2023-01-20T05:01:15.966Z,995.45
2023-01-20T05:02:19.250Z,995.51
2023-01-20T05:03:21.866Z,995.5
2023-01-20T05:04:24.535Z,995.58
2023-01-20T05:05:27.211Z,995.51
2023-01-20T05:06:29.853Z,995.53
2023-01-20T05:07:32.513Z,995.56
2023-01-20T05:08:35.157Z,995.63
2023-01-20T05:09:37.787Z,995.6
2023-01-20T05:10:40.401Z,995.69
2023-01-20T05:11:43.098Z,995.71
2023-01-20T05:12:45.778Z,995.71
2023-01-20T05:13:48.493Z,995.76
2023-01-20T05:14:51.144Z,995.75
2023-01-20T05:15:53.907Z,995.79
2023-01-20T05:16:56.536Z,995.78
2023-01-20T05:17:59.181Z,995.77
2023-01-20T05:19:01.857Z,995.84
2023-01-20T05:20:04.532Z,995.81
2023-01-20T05:21:07.225Z,995.8
2023-01-20T05:22:09.861Z,995.83
2023-01-20T05:23:12.486Z,995.85
2023-01-20T05:24:15.146Z,995.86
2023-01-20T05:25:17.762Z,995.84
2023-01-20T05:26:20.425Z,995.83
2023-01-20T05:27:23.083Z,995.87
2023-01-20T05:28:25.789Z,995.83
2023-01-20T05:29:28.446Z,995.85
2023-01-20T05:30:31.244Z,995.86
2023-01-20T05:31:34.087Z,995.84
2023-01-20T05:32:36.716Z,995.88
2023-01-20T05:33:39.315Z,995.97
2023-01-20T05:34:42.025Z,995.93
2023-01-20T05:35:44.692Z,995.95
2023-01-20T05:36:47.303Z,996.03
2023-01-20T05:37:49.963Z,995.99
2023-01-20T05:38:52.646Z,996.08
2023-01-20T05:39:55.330Z,996.04
2023-01-20T05:40:57.947Z,996.07
2023-01-20T05:42:00.661Z,996.11
2023-01-20T05:43:03.347Z,996.09
2023-01-20T05:44:06.081Z,996.11
2023-01-20T05:45:08.736Z,996.17
2023-01-20T05:46:11.545Z,996.19
2023-01-20T05:47:14.254Z,996.17
2023-01-20T05:48:16.879Z,996.18
2023-01-20T05:49:19.555Z,996.23
2023-01-20T05:50:22.194Z,996.16
2023-01-20T05:51:24.870Z,996.23
2023-01-20T05:52:27.522Z,996.21
2023-01-20T05:53:30.212Z,996.22
2023-01-20T05:54:32.890Z,996.2
2023-01-20T05:55:35.533Z,996.29
2023-01-20T05:56:38.191Z,996.27
2023-01-20T05:57:40.818Z,996.33
2023-01-20T05:58:43.477Z,996.33
2023-01-20T05:59:46.158Z,996.39
2023-01-20T06:00:48.813Z,996.33
2023-01-20T06:01:52.329Z,996.37
2023-01-20T06:02:55.140Z,996.36
2023-01-20T06:03:58.012Z,996.43
2023-01-20T06:05:00.663Z,996.41
2023-01-20T06:06:03.247Z,996.5
2023-01-20T06:07:05.927Z,996.5
2023-01-20T06:08:08.622Z,996.43
2023-01-20T06:09:11.917Z,996.53
2023-01-20T06:10:14.527Z,996.5
2023-01-20T06:11:17.146Z,996.52
2023-01-20T06:12:19.769Z,996.56
2023-01-20T06:13:22.390Z,996.56
2023-01-20T06:14:25.272Z,996.58
2023-01-20T06:15:27.983Z,996.57
2023-01-20T06:16:30.924Z,996.55
2023-01-20T06:17:33.562Z,996.61
2023-01-20T06:18:36.147Z,996.59
2023-01-20T06:19:38.783Z,996.53
2023-01-20T06:20:41.407Z,996.62
2023-01-20T06:21:47.223Z,996.58
2023-01-20T06:22:49.674Z,996.57
2023-01-20T06:23:52.439Z,996.57
2023-01-20T06:24:55.136Z,996.59
2023-01-20T06:25:57.738Z,996.6
2023-01-20T06:27:00.491Z,996.59
2023-01-20T06:28:03.146Z,996.61
2023-01-20T06:29:05.747Z,996.62
2023-01-20T06:30:08.430Z,996.58
2023-01-20T06:31:14.235Z,996.64
2023-01-20T06:32:16.784Z,996.64
2023-01-20T06:33:19.412Z,996.66
2023-01-20T06:34:22.041Z,996.61
2023-01-20T06:35:24.707Z,996.67
2023-01-20T06:36:27.344Z,996.66
2023-01-20T06:37:29.926Z,996.67
2023-01-20T06:38:32.559Z,996.73
2023-01-20T06:39:35.283Z,996.69
2023-01-20T06:40:37.909Z,996.72
2023-01-20T06:41:40.555Z,996.72
2023-01-20T06:42:43.223Z,996.72
2023-01-20T06:43:45.897Z,996.74
2023-01-20T06:44:48.612Z,996.76
2023-01-20T06:45:51.239Z,996.76
2023-01-20T06:46:54.258Z,996.75
2023-01-20T06:47:56.981Z,996.77
2023-01-20T06:48:59.634Z,996.8
2023-01-20T06:50:02.938Z,996.79
2023-01-20T06:51:05.555Z,996.86
2023-01-20T06:52:08.814Z,996.79
2023-01-20T06:53:11.420Z,996.81
2023-01-20T06:54:14.080Z,996.82
2023-01-20T06:55:17.681Z,996.83
2023-01-20T06:56:20.223Z,996.86
2023-01-20T06:57:22.877Z,996.82
2023-01-20T06:58:25.532Z,996.9
2023-01-20T06:59:28.200Z,996.93
2023-01-20T07:00:31.205Z,996.85
2023-01-20T07:01:34.304Z,996.9
2023-01-20T07:02:37.311Z,996.93
2023-01-20T07:03:39.990Z,996.99
2023-01-20T07:04:42.716Z,996.92
2023-01-20T07:05:45.544Z,996.95
2023-01-20T07:06:48.253Z,996.93
2023-01-20T07:07:51.078Z,996.93
2023-01-20T07:08:53.833Z,996.95
2023-01-20T07:09:56.477Z,996.94
2023-01-20T07:10:59.168Z,996.98
2023-01-20T07:12:01.768Z,997.05
2023-01-20T07:13:04.595Z,997.08
2023-01-20T07:14:07.272Z,997.08
2023-01-20T07:15:09.882Z,997.08
2023-01-20T07:16:16.450Z,997.13
2023-01-20T07:17:18.831Z,997.11
2023-01-20T07:18:21.474Z,997.09
2023-01-20T07:19:24.139Z,997.13
2023-01-20T07:20:26.784Z,997.19
2023-01-20T07:21:29.457Z,997.14
2023-01-20T07:22:32.126Z,997.19
2023-01-20T07:23:34.752Z,997.16
2023-01-20T07:24:37.384Z,997.21
2023-01-20T07:25:40.052Z,997.22
2023-01-20T07:26:42.688Z,997.24
2023-01-20T07:27:45.324Z,997.27
2023-01-20T07:28:47.966Z,997.26
2023-01-20T07:29:50.613Z,997.34
2023-01-20T07:30:53.564Z,997.27
2023-01-20T07:31:56.844Z,997.4
2023-01-20T07:33:00.021Z,997.37
2023-01-20T07:34:02.728Z,997.4
2023-01-20T07:35:05.599Z,997.45
2023-01-20T07:36:08.424Z,997.37
2023-01-20T07:37:11.090Z,997.36
2023-01-20T07:38:13.778Z,997.44
2023-01-20T07:39:16.462Z,997.38
2023-01-20T07:40:19.720Z,997.41
2023-01-20T07:41:22.481Z,997.45
2023-01-20T07:42:25.107Z,997.43
2023-01-20T07:43:27.729Z,997.48
2023-01-20T07:44:30.371Z,997.44
2023-01-20T07:45:33.161Z,997.48
2023-01-20T07:46:35.998Z,997.51
2023-01-20T07:47:38.763Z,997.52
2023-01-20T07:48:41.970Z,997.52
2023-01-20T07:49:44.681Z,997.51
2023-01-20T07:50:47.436Z,997.55
2023-01-20T07:51:50.641Z,997.55
2023-01-20T07:52:53.365Z,997.62
2023-01-20T07:53:56.125Z,997.61
2023-01-20T07:54:58.784Z,997.59
2023-01-20T07:56:01.485Z,997.65
2023-01-20T07:57:06.834Z,997.68
2023-01-20T07:58:12.312Z,997.73
2023-01-20T07:59:14.664Z,997.74
2023-01-20T08:00:17.301Z,997.66
2023-01-20T08:01:20.548Z,997.74
2023-01-20T08:02:23.198Z,997.75
2023-01-20T08:03:27.772Z,997.78
2023-01-20T08:04:30.520Z,997.77
2023-01-20T08:05:33.231Z,997.78
2023-01-20T08:06:35.927Z,997.79
2023-01-20T08:07:38.565Z,997.83
2023-01-20T08:08:41.243Z,997.88
2023-01-20T08:09:43.857Z,997.83
2023-01-20T08:10:46.705Z,997.84
2023-01-20T08:11:49.380Z,997.87
2023-01-20T08:12:52.026Z,997.87
2023-01-20T08:13:54.683Z,997.84
2023-01-20T08:14:57.369Z,997.86
2023-01-20T08:16:00.103Z,997.93
2023-01-20T08:17:02.816Z,997.93
2023-01-20T08:18:05.506Z,997.97
2023-01-20T08:19:08.761Z,998.04
2023-01-20T08:20:11.401Z,997.99
2023-01-20T08:21:14.110Z,998.05
2023-01-20T08:22:16.863Z,998.01
2023-01-20T08:23:19.503Z,998.1
2023-01-20T08:24:22.167Z,998.07
2023-01-20T08:25:24.844Z,998.07
2023-01-20T08:26:28.068Z,998.16
2023-01-20T08:27:30.703Z,998.17
2023-01-20T08:28:36.178Z,998.2
2023-01-20T08:29:38.700Z,998.18
2023-01-20T08:30:41.819Z,998.24
2023-01-20T08:31:45.077Z,998.26
2023-01-20T08:32:47.805Z,998.27
2023-01-20T08:33:50.411Z,998.31
2023-01-20T08:34:53.109Z,998.28
2023-01-20T08:35:55.784Z,998.33
2023-01-20T08:36:58.563Z,998.33
2023-01-20T08:38:01.365Z,998.39
2023-01-20T08:39:04.072Z,998.37
2023-01-20T08:40:06.765Z,998.34
2023-01-20T08:41:09.708Z,998.38
2023-01-20T08:42:12.370Z,998.4
2023-01-20T08:43:15.009Z,998.41
2023-01-20T08:44:17.725Z,998.43
2023-01-20T08:45:20.379Z,998.43
2023-01-20T08:46:23.678Z,998.46
2023-01-20T08:47:26.405Z,998.45
2023-01-20T08:48:29.099Z,998.5
2023-01-20T08:49:31.753Z,998.45
2023-01-20T08:50:34.415Z,998.49
2023-01-20T08:51:37.387Z,998.57
2023-01-20T08:52:40.093Z,998.56
2023-01-20T08:53:42.835Z,998.56
2023-01-20T08:54:45.518Z,998.61
2023-01-20T08:55:48.235Z,998.6
2023-01-20T08:56:50.944Z,998.59
2023-01-20T08:57:53.627Z,998.57
2023-01-20T08:58:56.345Z,998.63
2023-01-20T08:59:59.050Z,998.72
2023-01-20T09:01:01.913Z,998.65
2023-01-20T09:02:04.759Z,998.71
2023-01-20T09:03:07.400Z,998.67
2023-01-20T09:04:10.710Z,998.69
2023-01-20T09:05:14.653Z,998.74
2023-01-20T09:06:17.351Z,998.73
2023-01-20T09:07:20.603Z,998.76
2023-01-20T09:08:24.093Z,998.73
2023-01-20T09:09:26.954Z,998.73
2023-01-20T09:10:29.731Z,998.77
2023-01-20T09:11:32.665Z,998.79
2023-01-20T09:12:35.304Z,998.81
2023-01-20T09:13:37.916Z,998.84
2023-01-20T09:14:40.592Z,998.86
2023-01-20T09:15:43.390Z,998.83
2023-01-20T09:16:46.055Z,998.87
2023-01-20T09:17:48.729Z,998.84
2023-01-20T09:18:51.404Z,998.89
2023-01-20T09:19:54.084Z,998.87
2023-01-20T09:20:56.732Z,998.92
2023-01-20T09:21:59.489Z,998.92
2023-01-20T09:23:02.171Z,998.9
2023-01-20T09:24:04.982Z,998.95
2023-01-20T09:25:07.643Z,998.98
2023-01-20T09:26:10.352Z,999.02
2023-01-20T09:27:13.027Z,999.03
2023-01-20T09:28:15.644Z,998.99
2023-01-20T09:29:18.919Z,999.06
2023-01-20T09:30:21.857Z,999.04
2023-01-20T09:31:25.478Z,999.07
2023-01-20T09:32:28.118Z,999.03
2023-01-20T09:33:30.780Z,999.07
2023-01-20T09:34:33.436Z,999.05
2023-01-20T09:35:36.039Z,999.1
2023-01-20T09:36:38.722Z,999.05
2023-01-20T09:37:41.957Z,999.1
2023-01-20T09:38:44.571Z,999.05
2023-01-20T09:39:47.405Z,999.1
2023-01-20T09:40:50.141Z,999.09
2023-01-20T09:41:52.886Z,999.11
2023-01-20T09:42:55.562Z,999.18
2023-01-20T09:43:58.209Z,999.13
2023-01-20T09:45:00.853Z,999.1
2023-01-20T09:46:06.298Z,999.12
2023-01-20T09:47:08.757Z,999.18
2023-01-20T09:48:11.362Z,999.18
2023-01-20T09:49:13.998Z,999.16
2023-01-20T09:50:18.018Z,999.15
2023-01-20T09:51:20.799Z,999.2
2023-01-20T09:52:23.461Z,999.21
2023-01-20T09:53:26.060Z,999.22
2023-01-20T09:54:28.713Z,999.28
2023-01-20T09:55:31.467Z,999.23
2023-01-20T09:56:34.239Z,999.2
2023-01-20T09:57:36.855Z,999.27
2023-01-20T09:58:39.500Z,999.3
2023-01-20T09:59:42.138Z,999.31
2023-01-20T10:00:44.810Z,999.28
2023-01-20T10:01:47.669Z,999.3
2023-01-20T10:02:50.310Z,999.24
2023-01-20T10:03:52.978Z,999.25
2023-01-20T10:04:55.581Z,999.31
2023-01-20T10:05:58.245Z,999.24
2023-01-20T10:07:00.948Z,999.3
2023-01-20T10:08:03.625Z,999.28
2023-01-20T10:09:07.251Z,999.32
2023-01-20T10:10:09.889Z,999.33
2023-01-20T10:11:12.739Z,999.37
2023-01-20T10:12:15.416Z,999.35
2023-01-20T10:13:18.185Z,999.34
2023-01-20T10:14:20.821Z,999.35
2023-01-20T10:15:23.461Z,999.37
2023-01-20T10:16:26.226Z,999.36
2023-01-20T10:17:28.873Z,999.34
2023-01-20T10:18:31.583Z,999.39
2023-01-20T10:19:34.292Z,999.3
2023-01-20T10:20:36.956Z,999.34
2023-01-20T10:21:39.617Z,999.32
2023-01-20T10:22:42.292Z,999.29
2023-01-20T10:23:44.971Z,999.31
2023-01-20T10:24:47.651Z,999.33
2023-01-20T10:25:50.335Z,999.38
2023-01-20T10:26:53.046Z,999.34
2023-01-20T10:27:55.802Z,999.42
2023-01-20T10:28:58.460Z,999.43
2023-01-20T10:30:01.145Z,999.44
2023-01-20T10:31:04.555Z,999.37
2023-01-20T10:32:07.180Z,999.43
2023-01-20T10:33:09.861Z,999.44
2023-01-20T10:34:13.187Z,999.41
2023-01-20T10:35:18.085Z,999.46
2023-01-20T10:36:20.788Z,999.47
2023-01-20T10:37:23.397Z,999.45
2023-01-20T10:38:26.053Z,999.47
2023-01-20T10:39:28.731Z,999.43
2023-01-20T10:40:35.801Z,999.43
2023-01-20T10:41:38.155Z,999.4
2023-01-20T10:42:40.922Z,999.41
2023-01-20T10:43:43.642Z,999.46
2023-01-20T10:44:46.319Z,999.46
2023-01-20T10:45:48.963Z,999.4
2023-01-20T10:46:51.957Z,999.38
2023-01-20T10:47:54.641Z,999.38
2023-01-20T10:48:57.288Z,999.42
2023-01-20T10:50:00.195Z,999.35
2023-01-20T10:51:02.849Z,999.41
2023-01-20T10:52:05.505Z,999.34
2023-01-20T10:53:08.172Z,999.42
2023-01-20T10:54:10.780Z,999.39
2023-01-20T10:55:14.710Z,999.41
2023-01-20T10:56:17.325Z,999.39
2023-01-20T10:57:19.951Z,999.35
2023-01-20T10:58:22.957Z,999.38
2023-01-20T10:59:25.644Z,999.36
2023-01-20T11:00:28.293Z,999.37
2023-01-20T11:01:31.107Z,999.34
2023-01-20T11:02:34.395Z,999.3
2023-01-20T11:03:37.100Z,999.36
2023-01-20T11:04:39.783Z,999.41
2023-01-20T11:05:42.483Z,999.36
2023-01-20T11:06:45.157Z,999.37
2023-01-20T11:07:47.831Z,999.36
2023-01-20T11:08:50.501Z,999.35
2023-01-20T11:09:53.186Z,999.36
2023-01-20T11:10:55.864Z,999.34
2023-01-20T11:11:58.562Z,999.41
2023-01-20T11:13:01.205Z,999.41
2023-01-20T11:14:03.910Z,999.41
2023-01-20T11:15:06.697Z,999.4
2023-01-20T11:16:09.699Z,999.4
2023-01-20T11:17:12.329Z,999.45
2023-01-20T11:18:15.057Z,999.38
2023-01-20T11:19:17.708Z,999.37
2023-01-20T11:20:20.373Z,999.41
2023-01-20T11:21:23.069Z,999.42
2023-01-20T11:22:25.730Z,999.41
2023-01-20T11:23:28.369Z,999.41
2023-01-20T11:24:31.076Z,999.36
2023-01-20T11:25:34.374Z,999.37
2023-01-20T11:26:36.984Z,999.38
2023-01-20T11:27:39.639Z,999.36
2023-01-20T11:28:42.307Z,999.4
2023-01-20T11:29:45.072Z,999.39
2023-01-20T11:30:47.977Z,999.44
2023-01-20T11:31:50.917Z,999.41
2023-01-20T11:32:53.546Z,999.38
2023-01-20T11:33:56.196Z,999.41
2023-01-20T11:34:58.894Z,999.42
2023-01-20T11:36:01.645Z,999.36
2023-01-20T11:37:04.263Z,999.38
2023-01-20T11:38:06.956Z,999.37
2023-01-20T11:39:09.579Z,999.43
2023-01-20T11:40:12.594Z,999.44
2023-01-20T11:41:15.260Z,999.43
2023-01-20T11:42:18.040Z,999.4
2023-01-20T11:43:20.766Z,999.38
2023-01-20T11:44:23.460Z,999.42
2023-01-20T11:45:26.162Z,999.43
2023-01-20T11:46:29.168Z,999.43
2023-01-20T11:47:31.824Z,999.43
2023-01-20T11:48:34.506Z,999.41
2023-01-20T11:49:37.163Z,999.44
2023-01-20T11:50:39.880Z,999.48
2023-01-20T11:51:42.660Z,999.45
2023-01-20T11:52:45.299Z,999.44
2023-01-20T11:53:47.934Z,999.44
2023-01-20T11:54:50.616Z,999.43
2023-01-20T11:55:53.432Z,999.43
2023-01-20T11:56:56.068Z,999.36
2023-01-20T11:57:58.753Z,999.39
2023-01-20T11:59:01.396Z,999.36
2023-01-20T12:00:04.090Z,999.35
2023-01-20T12:01:06.850Z,999.34
2023-01-20T12:02:09.823Z,999.43
2023-01-20T12:03:12.714Z,999.38
2023-01-20T12:04:15.532Z,999.43
2023-01-20T12:05:18.164Z,999.45
2023-01-20T12:06:20.814Z,999.39
2023-01-20T12:07:23.473Z,999.4
2023-01-20T12:08:26.102Z,999.39
2023-01-20T12:09:28.783Z,999.37
2023-01-20T12:10:32.027Z,999.39
2023-01-20T12:11:34.745Z,999.39
2023-01-20T12:12:37.415Z,999.46
2023-01-20T12:13:40.019Z,999.38
2023-01-20T12:14:42.694Z,999.39
2023-01-20T12:15:45.377Z,999.36
2023-01-20T12:16:48.572Z,999.35
2023-01-20T12:17:54.758Z,999.36
2023-01-20T12:19:03.498Z,999.33
2023-01-20T12:20:05.762Z,999.36
2023-01-20T12:21:08.458Z,999.35
2023-01-20T12:22:11.115Z,999.35
2023-01-20T12:23:13.945Z,999.35
2023-01-20T12:24:16.595Z,999.41
2023-01-20T12:25:19.413Z,999.39
2023-01-20T12:26:24.660Z,999.4
2023-01-20T12:27:27.210Z,999.39
2023-01-20T12:28:30.079Z,999.39
2023-01-20T12:29:32.715Z,999.38
2023-01-20T12:30:35.474Z,999.32
2023-01-20T12:31:38.857Z,999.32
2023-01-20T12:32:41.668Z,999.38
2023-01-20T12:33:44.454Z,999.31
2023-01-20T12:34:47.095Z,999.31
2023-01-20T12:35:49.738Z,999.33
2023-01-20T12:36:52.361Z,999.36
2023-01-20T12:37:55.024Z,999.32
2023-01-20T12:38:57.768Z,999.32
2023-01-20T12:40:00.769Z,999.4
2023-01-20T12:41:03.407Z,999.38
2023-01-20T12:42:06.052Z,999.39
2023-01-20T12:43:09.295Z,999.36
2023-01-20T12:44:11.922Z,999.39
2023-01-20T12:45:15.604Z,999.44
2023-01-20T12:46:18.569Z,999.4
2023-01-20T12:47:21.256Z,999.4
2023-01-20T12:48:23.955Z,999.38
2023-01-20T12:49:26.724Z,999.41
2023-01-20T12:50:29.379Z,999.36
2023-01-20T12:51:32.052Z,999.44
2023-01-20T12:52:34.984Z,999.44
2023-01-20T12:53:37.656Z,999.49
2023-01-20T12:54:49.414Z,999.51
2023-01-20T12:55:51.866Z,999.48
2023-01-20T12:56:54.574Z,999.5
2023-01-20T12:57:57.196Z,999.54
2023-01-20T12:58:59.840Z,999.47
2023-01-20T13:00:02.509Z,999.49
2023-01-20T13:01:06.308Z,999.51
2023-01-20T13:02:08.924Z,999.49
2023-01-20T13:03:11.843Z,999.45
2023-01-20T13:04:14.534Z,999.5
2023-01-20T13:05:17.450Z,999.48
2023-01-20T13:06:20.321Z,999.52